Time;durP1;ratioP1;P1;durP2;ratioP2;P2;SDS_P1;SDS_P2;PMS_P1;PMS_P2;Temp;Humidity;BMP_temperature;BMP_pressure;BME280_temperature;BME280_humidity;BME280_pressure;Samples;Min_cycle;Max_cycle;Signal;HPM_P1;HPM_P2
2024/02/20 00:00:12;;;;;;;23.63;15.30;;;205.10;2252.80;;;;;;4840158;29;20034;-71
2024/02/20 00:02:42;;;;;;;77.70;47.47;;;205.10;2252.80;;;;;;4840401;29;20053;-70
2024/02/20 00:05:11;;;;;;;53.65;32.42;;;205.20;2252.80;;;;;;4840758;29;20383;-70
2024/02/20 00:07:37;;;;;;;40.65;23.65;;;205.20;2252.80;;;;;;4840290;29;20026;-70
2024/02/20 00:10:06;;;;;;;39.25;23.88;;;205.30;2252.80;;;;;;4840538;29;20467;-69
2024/02/20 00:12:32;;;;;;;16.85;12.02;;;205.40;2252.80;;;;;;4840046;29;20030;-69
2024/02/20 00:15:00;;;;;;;30.92;18.02;;;205.40;2252.80;;;;;;4840194;29;20030;-71
2024/02/20 00:17:27;;;;;;;93.05;52.28;;;205.50;2252.80;;;;;;4840047;29;20473;-74
2024/02/20 00:19:53;;;;;;;183.45;102.60;;;205.50;2252.80;;;;;;4840205;29;20022;-70
2024/02/20 00:22:18;;;;;;;54.28;32.35;;;205.50;2252.80;;;;;;4839867;29;20036;-69
2024/02/20 00:24:44;;;;;;;49.88;26.52;;;205.50;2252.80;;;;;;4839820;29;20087;-73
2024/02/20 00:27:10;;;;;;;32.65;20.95;;;205.60;2252.80;;;;;;4852807;29;20030;-74
2024/02/20 00:29:36;;;;;;;23.45;13.57;;;205.70;2252.80;;;;;;4839596;29;20030;-70
2024/02/20 00:32:04;;;;;;;28.38;19.98;;;205.70;2252.80;;;;;;4839876;29;20053;-72
2024/02/20 00:34:30;;;;;;;32.95;21.58;;;205.70;2252.80;;;;;;4840035;29;20116;-72
2024/02/20 00:36:55;;;;;;;40.30;23.92;;;205.70;2252.80;;;;;;4839916;29;20130;-70
2024/02/20 00:39:21;;;;;;;19.52;14.07;;;230.40;2252.80;;;;;;4839619;29;20049;-70
2024/02/20 00:41:47;;;;;;;32.25;19.58;;;230.40;2252.80;;;;;;4839838;29;20041;-72
2024/02/20 00:44:13;;;;;;;27.70;18.38;;;230.40;2252.80;;;;;;4838467;29;20030;-72
2024/02/20 00:46:39;;;;;;;19.38;13.50;;;230.50;2252.80;;;;;;4839501;29;20030;-70
2024/02/20 00:49:05;;;;;;;24.55;18.17;;;230.50;2252.80;;;;;;4839161;29;20113;-75
2024/02/20 00:51:31;;;;;;;21.17;14.00;;;230.40;2252.80;;;;;;4839480;29;20116;-71
2024/02/20 00:53:56;;;;;;;20.48;12.25;;;230.40;2252.80;;;;;;4839475;29;20065;-71
2024/02/20 00:56:23;;;;;;;19.23;11.75;;;230.50;2252.80;;;;;;4839334;29;20086;-72
2024/02/20 00:58:52;;;;;;;18.77;13.95;;;230.50;2252.80;;;;;;4839504;29;20037;-70
2024/02/20 01:01:18;;;;;;;23.85;14.85;;;230.40;2252.80;;;;;;4826934;29;20059;-70
2024/02/20 01:03:44;;;;;;;20.85;13.70;;;230.40;2252.80;;;;;;4839239;29;20030;-70
2024/02/20 01:06:10;;;;;;;21.85;14.13;;;230.40;2252.80;;;;;;4839660;29;20473;-79
2024/02/20 01:08:37;;;;;;;24.60;15.90;;;230.40;2252.80;;;;;;4839388;29;20057;-70
2024/02/20 01:11:03;;;;;;;27.85;18.75;;;230.40;2252.80;;;;;;4839260;29;20022;-73
2024/02/20 01:13:29;;;;;;;45.80;25.65;;;205.70;2252.80;;;;;;4839254;29;20037;-70
2024/02/20 01:15:55;;;;;;;52.90;30.45;;;205.70;2252.80;;;;;;4839065;29;20033;-71
2024/02/20 01:18:21;;;;;;;34.90;21.08;;;205.70;2252.80;;;;;;4839266;29;20113;-70
2024/02/20 01:20:47;;;;;;;71.00;35.72;;;230.40;2252.80;;;;;;4838914;29;20385;-69
2024/02/20 01:23:13;;;;;;;32.05;23.65;;;230.40;2252.80;;;;;;4838963;29;20045;-74
2024/02/20 01:25:39;;;;;;;83.38;45.45;;;230.40;2252.80;;;;;;4839026;29;20125;-72
2024/02/20 01:28:05;;;;;;;45.10;31.88;;;230.40;2252.80;;;;;;4838952;29;20041;-71
2024/02/20 01:30:31;;;;;;;28.75;19.70;;;230.40;2252.80;;;;;;4838887;29;20711;-71
2024/02/20 01:33:00;;;;;;;53.10;34.08;;;205.70;2252.80;;;;;;4839239;29;20038;-70
2024/02/20 01:35:26;;;;;;;30.13;19.33;;;205.70;2252.80;;;;;;4838931;29;20030;-70
2024/02/20 01:37:53;;;;;;;22.90;16.63;;;205.70;2252.80;;;;;;4838735;29;20393;-70
2024/02/20 01:40:19;;;;;;;56.50;35.22;;;205.70;2252.80;;;;;;4845773;29;20030;-69
2024/02/20 01:42:58;;;;;;;33.72;22.58;;;205.70;2252.80;;;;;;4827294;29;20098;-71
2024/02/20 01:45:29;;;;;;;31.00;19.58;;;205.70;2252.80;;;;;;4838464;29;20053;-73
2024/02/20 01:48:02;;;;;;;27.90;18.40;;;230.40;2252.80;;;;;;4838438;29;20026;-72
2024/02/20 01:50:30;;;;;;;39.42;23.48;;;205.70;2252.80;;;;;;4838826;29;20101;-70
2024/02/20 01:52:57;;;;;;;26.95;17.95;;;205.70;2252.80;;;;;;4838257;29;20121;-71
2024/02/20 01:55:23;;;;;;;42.20;26.80;;;205.70;2252.80;;;;;;4837992;29;20058;-70
2024/02/20 01:57:48;;;;;;;24.17;17.42;;;230.40;2252.80;;;;;;4838529;29;20049;-70
2024/02/20 02:00:14;;;;;;;21.15;15.32;;;230.40;2252.80;;;;;;4838220;29;20026;-74
2024/02/20 02:02:41;;;;;;;24.27;18.40;;;230.40;2252.80;;;;;;4838255;29;20038;-72
2024/02/20 02:05:07;;;;;;;31.33;21.48;;;230.50;2252.80;;;;;;4838664;29;20362;-73
2024/02/20 02:07:33;;;;;;;26.63;19.35;;;230.50;2252.80;;;;;;4837907;29;20170;-79
2024/02/20 02:09:59;;;;;;;32.85;21.88;;;230.50;2252.80;;;;;;4838392;29;20022;-70
2024/02/20 02:12:25;;;;;;;63.38;40.65;;;230.50;2252.80;;;;;;4838153;29;20029;-70
2024/02/20 02:14:50;;;;;;;64.15;43.53;;;230.60;2252.80;;;;;;4838222;29;20029;-70
2024/02/20 02:17:16;;;;;;;38.97;23.92;;;230.60;2252.80;;;;;;4838144;29;20095;-70
2024/02/20 02:19:43;;;;;;;30.52;20.45;;;230.50;2252.80;;;;;;4838028;29;20431;-71
2024/02/20 02:22:09;;;;;;;37.10;26.90;;;230.60;2252.80;;;;;;4838193;29;20094;-71
2024/02/20 02:24:35;;;;;;;37.22;23.75;;;230.60;2252.80;;;;;;4838140;29;20032;-71
2024/02/20 02:27:02;;;;;;;68.10;43.13;;;230.40;2252.80;;;;;;4838354;29;20032;-70
2024/02/20 02:29:28;;;;;;;44.13;30.10;;;230.60;2252.80;;;;;;4838287;29;20103;-71
2024/02/20 02:31:55;;;;;;;35.03;23.80;;;230.60;2252.80;;;;;;4837992;29;20022;-71
2024/02/20 02:34:22;;;;;;;33.28;22.25;;;230.60;2252.80;;;;;;4837996;29;20110;-69
2024/02/20 02:36:48;;;;;;;28.08;21.20;;;230.60;2252.80;;;;;;4842595;29;20141;-72
2024/02/20 02:39:16;;;;;;;38.60;26.50;;;230.60;2252.80;;;;;;4845941;29;20389;-75
2024/02/20 02:41:42;;;;;;;31.23;22.80;;;230.60;2252.80;;;;;;4837942;29;20038;-71
2024/02/20 02:44:08;;;;;;;57.45;35.63;;;230.50;2252.80;;;;;;4837865;29;20049;-73
2024/02/20 02:46:33;;;;;;;71.28;45.58;;;230.40;2252.80;;;;;;4837718;29;20092;-72
2024/02/20 02:48:59;;;;;;;90.35;60.03;;;205.70;2252.80;;;;;;4837934;29;20030;-74
2024/02/20 02:51:25;;;;;;;69.78;45.40;;;230.40;2252.80;;;;;;4837793;29;20018;-74
2024/02/20 02:53:51;;;;;;;62.03;40.58;;;205.60;2252.80;;;;;;4837898;29;20054;-73
2024/02/20 02:56:17;;;;;;;49.83;36.78;;;205.60;2252.80;;;;;;4842688;29;20036;-74
2024/02/20 02:58:43;;;;;;;57.33;39.28;;;205.70;2252.80;;;;;;4844954;29;20030;-70
2024/02/20 03:01:09;;;;;;;50.75;35.10;;;230.40;2252.80;;;;;;4837495;29;20030;-70
2024/02/20 03:03:36;;;;;;;46.97;30.80;;;230.50;2252.80;;;;;;4837599;29;20091;-72
2024/02/20 03:06:06;;;;;;;36.00;24.00;;;230.60;2252.80;;;;;;4837672;29;20629;-70
2024/02/20 03:08:33;;;;;;;32.20;23.40;;;230.50;2252.80;;;;;;4839343;29;20045;-69
2024/02/20 03:10:59;;;;;;;35.15;24.52;;;230.50;2252.80;;;;;;4841446;29;20018;-69
2024/02/20 03:13:25;;;;;;;36.33;24.88;;;230.50;2252.80;;;;;;4841141;29;20484;-71
2024/02/20 03:15:51;;;;;;;40.10;27.08;;;230.60;2252.80;;;;;;4840870;29;20026;-74
2024/02/20 03:18:17;;;;;;;35.72;23.38;;;230.60;2252.80;;;;;;4841239;29;20369;-72
2024/02/20 03:20:43;;;;;;;29.58;22.30;;;230.60;2252.80;;;;;;4841075;29;20034;-70
2024/02/20 03:23:09;;;;;;;36.25;23.60;;;230.50;2252.80;;;;;;4841347;29;20492;-72
2024/02/20 03:25:35;;;;;;;30.40;20.23;;;230.50;2252.80;;;;;;4840704;29;20086;-70
2024/02/20 03:28:00;;;;;;;28.45;19.17;;;230.60;2252.80;;;;;;4841190;29;20380;-70
2024/02/20 03:30:28;;;;;;;23.52;18.02;;;230.50;2252.80;;;;;;4840951;29;20032;-70
2024/02/20 03:32:55;;;;;;;25.00;18.33;;;230.50;2252.80;;;;;;4840977;29;20116;-71
2024/02/20 03:35:21;;;;;;;27.80;19.25;;;230.50;2252.80;;;;;;4840968;29;20026;-71
2024/02/20 03:37:48;;;;;;;30.23;18.60;;;230.50;2252.80;;;;;;4841049;29;20089;-70
2024/02/20 03:40:15;;;;;;;23.17;17.83;;;230.40;2252.80;;;;;;4840749;29;20101;-70
2024/02/20 03:42:40;;;;;;;23.17;17.52;;;205.70;2252.80;;;;;;4840914;29;20366;-73
2024/02/20 03:45:06;;;;;;;27.60;19.60;;;205.70;2252.80;;;;;;4840408;29;20048;-72
2024/02/20 03:47:32;;;;;;;29.15;20.42;;;205.60;2252.80;;;;;;4840399;29;20026;-72
2024/02/20 03:49:58;;;;;;;25.42;19.85;;;205.60;2252.80;;;;;;4840645;29;20466;-70
2024/02/20 03:52:24;;;;;;;25.95;17.75;;;205.50;2252.80;;;;;;4840305;29;20045;-73
2024/02/20 03:54:50;;;;;;;25.00;19.20;;;205.50;2252.80;;;;;;4840387;29;20064;-73
2024/02/20 03:57:16;;;;;;;30.02;19.70;;;205.40;2252.80;;;;;;4840535;29;20113;-73
2024/02/20 03:59:42;;;;;;;25.40;18.67;;;205.30;2252.80;;;;;;4840197;29;20058;-72
2024/02/20 04:02:08;;;;;;;29.48;19.00;;;205.50;2252.80;;;;;;4840666;29;20061;-71
2024/02/20 04:04:34;;;;;;;28.58;19.80;;;205.40;2252.80;;;;;;4840238;29;20022;-72
2024/02/20 04:07:02;;;;;;;28.33;18.98;;;205.40;2252.80;;;;;;4840787;29;20038;-72
2024/02/20 04:09:28;;;;;;;25.17;17.85;;;205.50;2252.80;;;;;;4840466;29;20018;-73
2024/02/20 04:11:54;;;;;;;31.95;20.58;;;205.50;2252.80;;;;;;4840453;29;20062;-70
2024/02/20 04:14:20;;;;;;;28.02;18.90;;;205.50;2252.80;;;;;;4840196;29;20022;-74
2024/02/20 04:16:45;;;;;;;25.65;19.63;;;205.50;2252.80;;;;;;4840204;29;20128;-71
2024/02/20 04:19:11;;;;;;;25.85;19.67;;;205.60;2252.80;;;;;;4840045;29;20383;-74
2024/02/20 04:21:37;;;;;;;27.27;20.05;;;205.60;2252.80;;;;;;4840390;29;20109;-74
2024/02/20 04:24:03;;;;;;;30.63;24.30;;;205.60;2252.80;;;;;;4823703;29;20036;-75
2024/02/20 04:26:29;;;;;;;32.97;24.00;;;205.60;2252.80;;;;;;4840278;29;20041;-70
2024/02/20 04:28:54;;;;;;;25.25;21.23;;;205.60;2252.80;;;;;;4839909;29;20041;-73
2024/02/20 04:31:20;;;;;;;28.13;19.17;;;205.60;2252.80;;;;;;4851626;29;20032;-73
2024/02/20 04:33:46;;;;;;;24.70;18.75;;;205.50;2252.80;;;;;;4850527;29;20174;-73
2024/02/20 04:36:12;;;;;;;24.33;16.27;;;205.60;2252.80;;;;;;4839966;29;20168;-70
2024/02/20 04:38:40;;;;;;;20.45;15.13;;;205.60;2252.80;;;;;;4840007;29;20109;-69
2024/02/20 04:41:07;;;;;;;19.65;14.85;;;205.60;2252.80;;;;;;4839861;29;20041;-74
2024/02/20 04:43:34;;;;;;;19.13;14.15;;;205.60;2252.80;;;;;;4839918;29;20026;-76
2024/02/20 04:46:00;;;;;;;20.50;15.68;;;205.50;2252.80;;;;;;4839578;29;20102;-69
2024/02/20 04:48:25;;;;;;;20.05;15.13;;;205.60;2252.80;;;;;;4839958;29;20477;-73
2024/02/20 04:50:53;;;;;;;19.50;14.48;;;205.60;2252.80;;;;;;4839721;29;20037;-73
2024/02/20 04:53:19;;;;;;;19.50;14.73;;;205.50;2252.80;;;;;;4827536;29;20094;-70
2024/02/20 04:55:45;;;;;;;22.63;15.73;;;205.60;2252.80;;;;;;4839604;29;20474;-70
2024/02/20 04:58:10;;;;;;;21.02;12.38;;;205.60;2252.80;;;;;;4827630;29;20038;-70
2024/02/20 05:00:36;;;;;;;20.00;12.82;;;230.50;2252.80;;;;;;4839184;29;20389;-70
2024/02/20 05:03:04;;;;;;;20.95;14.80;;;205.70;2252.80;;;;;;4839251;29;20030;-77
2024/02/20 05:05:31;;;;;;;22.08;15.02;;;205.70;2252.80;;;;;;4839341;29;20612;-72
2024/02/20 05:07:57;;;;;;;20.42;13.80;;;205.70;2252.80;;;;;;4839984;29;20034;-76
2024/02/20 05:10:23;;;;;;;17.88;13.75;;;205.60;2252.80;;;;;;4839208;29;20022;-75
2024/02/20 05:12:49;;;;;;;19.73;14.68;;;230.40;2252.80;;;;;;4839424;29;20036;-70
2024/02/20 05:15:15;;;;;;;20.55;13.25;;;230.40;2252.80;;;;;;4838870;29;20164;-70
2024/02/20 05:17:40;;;;;;;20.50;13.68;;;230.40;2252.80;;;;;;4839166;29;20070;-69
2024/02/20 05:20:07;;;;;;;20.13;15.80;;;230.40;2252.80;;;;;;4839371;29;20026;-73
2024/02/20 05:22:33;;;;;;;26.67;17.17;;;205.70;2252.80;;;;;;4839118;29;20041;-76
2024/02/20 05:24:59;;;;;;;23.92;20.13;;;205.70;2252.80;;;;;;4838889;29;20030;-70
2024/02/20 05:27:25;;;;;;;19.80;17.23;;;205.60;2252.80;;;;;;4839093;29;20029;-72
2024/02/20 05:29:50;;;;;;;17.50;12.13;;;205.70;2252.80;;;;;;4838619;29;20022;-69
2024/02/20 05:32:18;;;;;;;16.23;11.82;;;205.70;2252.80;;;;;;4838407;29;20100;-72
2024/02/20 05:34:44;;;;;;;17.38;12.25;;;205.70;2252.80;;;;;;4838878;29;20034;-70
2024/02/20 05:37:10;;;;;;;18.40;12.57;;;205.60;2252.80;;;;;;4839259;29;20049;-71
2024/02/20 05:39:35;;;;;;;22.10;14.90;;;205.60;2252.80;;;;;;4838457;29;20114;-72
2024/02/20 05:42:01;;;;;;;20.92;15.70;;;205.60;2252.80;;;;;;4839241;29;20533;-75
2024/02/20 05:44:27;;;;;;;19.02;14.27;;;205.50;2252.80;;;;;;4840033;29;20403;-70
2024/02/20 05:46:53;;;;;;;19.95;14.82;;;205.50;2252.80;;;;;;4850061;29;20037;-70
2024/02/20 05:49:19;;;;;;;17.30;13.30;;;205.50;2252.80;;;;;;4838602;29;20457;-70
2024/02/20 05:51:46;;;;;;;15.25;12.20;;;205.50;2252.80;;;;;;4838173;29;20038;-72
2024/02/20 05:54:11;;;;;;;17.80;12.75;;;205.50;2252.80;;;;;;4838137;29;20055;-74
2024/02/20 05:56:37;;;;;;;19.52;14.07;;;205.50;2252.80;;;;;;4838701;29;20098;-70
2024/02/20 05:59:03;;;;;;;16.02;11.80;;;205.50;2252.80;;;;;;4838429;29;20033;-72
2024/02/20 06:01:29;;;;;;;15.80;11.50;;;205.60;2252.80;;;;;;4838611;29;20040;-74
2024/02/20 06:03:54;;;;;;;42.38;34.95;;;205.70;2252.80;;;;;;4836998;29;20085;-71
2024/02/20 06:06:20;;;;;;;18.52;13.50;;;205.60;2252.80;;;;;;4838694;29;20029;-74
2024/02/20 06:08:46;;;;;;;18.50;11.38;;;205.60;2252.80;;;;;;4838371;29;20033;-68
2024/02/20 06:11:17;;;;;;;16.30;13.57;;;205.60;2252.80;;;;;;4838061;29;20034;-71
2024/02/20 06:13:44;;;;;;;416.58;237.57;;;205.70;2252.80;;;;;;4821712;29;20393;-69
2024/02/20 06:16:11;;;;;;;177.60;125.50;;;230.40;2252.80;;;;;;4838336;29;20033;-75
2024/02/20 06:18:38;;;;;;;27.23;21.60;;;230.50;2252.80;;;;;;4838360;29;20048;-69
2024/02/20 06:21:04;;;;;;;20.27;17.52;;;230.60;2252.80;;;;;;4838174;29;20036;-70
2024/02/20 06:23:31;;;;;;;20.08;17.08;;;230.70;2252.80;;;;;;4837926;29;20034;-69
2024/02/20 06:25:56;;;;;;;23.15;17.38;;;230.70;2252.80;;;;;;4838366;29;20034;-69
2024/02/20 06:28:22;;;;;;;17.55;14.93;;;230.80;2252.80;;;;;;4837800;29;20086;-69
2024/02/20 06:30:48;;;;;;;28.45;22.08;;;230.80;2252.80;;;;;;4830777;29;20084;-71
2024/02/20 06:33:14;;;;;;;26.67;22.83;;;230.90;2252.80;;;;;;4837814;29;20454;-69
2024/02/20 06:35:41;;;;;;;48.28;43.90;;;230.90;2252.80;;;;;;4838028;29;20110;-73
2024/02/20 06:38:09;;;;;;;31.45;28.27;;;230.70;2252.80;;;;;;4838651;29;20038;-74
2024/02/20 06:40:34;;;;;;;13.50;11.05;;;231.00;2252.80;;;;;;4838068;29;20460;-71
2024/02/20 06:43:00;;;;;;;17.83;15.82;;;231.10;2252.80;;;;;;4841646;29;20553;-67
2024/02/20 06:45:27;;;;;;;14.55;11.52;;;231.20;2252.80;;;;;;4843410;29;20022;-68
2024/02/20 06:47:54;;;;;;;26.65;23.90;;;231.20;2252.80;;;;;;4843195;29;20052;-68
2024/02/20 06:50:19;;;;;;;26.95;22.85;;;231.10;2252.80;;;;;;4843474;29;20087;-69
2024/02/20 06:52:46;;;;;;;84.97;74.70;;;231.10;2252.80;;;;;;4844357;29;20045;-69
2024/02/20 06:55:12;;;;;;;49.90;41.40;;;231.20;2252.80;;;;;;4842416;29;20149;-69
2024/02/20 06:57:39;;;;;;;50.40;43.40;;;231.30;2252.80;;;;;;4840814;29;20453;-71
2024/02/20 07:00:11;;;;;;;59.03;53.08;;;256.00;2252.80;;;;;;4840545;29;20065;-71
2024/02/20 07:02:43;;;;;;;57.35;44.00;;;256.10;2252.80;;;;;;4840998;29;20022;-77
2024/02/20 07:05:10;;;;;;;39.33;32.38;;;256.30;2252.80;;;;;;4840835;29;20082;-76
2024/02/20 07:07:37;;;;;;;13.75;9.43;;;256.40;2252.80;;;;;;4840177;29;20210;-77
2024/02/20 07:10:03;;;;;;;19.92;16.85;;;256.50;2252.80;;;;;;4840405;29;20026;-76
2024/02/20 07:12:29;;;;;;;15.52;9.77;;;256.40;2252.80;;;;;;4840500;29;20037;-79
2024/02/20 07:14:54;;;;;;;14.82;10.32;;;256.50;2252.80;;;;;;4840136;29;20022;-73
2024/02/20 07:17:21;;;;;;;14.60;10.95;;;256.60;2252.80;;;;;;4840096;29;20034;-72
2024/02/20 07:19:47;;;;;;;14.05;10.40;;;256.80;2252.80;;;;;;4840176;29;20496;-71
2024/02/20 07:22:12;;;;;;;16.27;13.77;;;281.60;2278.40;;;;;;4839773;29;20026;-75
2024/02/20 07:24:38;;;;;;;23.27;20.77;;;281.60;2278.40;;;;;;4850331;29;20033;-74
2024/02/20 07:27:04;;;;;;;23.20;19.80;;;281.70;2278.40;;;;;;4841874;29;20018;-69
2024/02/20 07:29:30;;;;;;;25.73;21.10;;;281.80;2278.40;;;;;;4850614;29;20025;-78
2024/02/20 07:31:55;;;;;;;23.40;19.17;;;281.70;2278.40;;;;;;4841475;29;20381;-71
2024/02/20 07:34:21;;;;;;;19.60;16.85;;;281.80;2278.40;;;;;;4839790;29;20064;-70
2024/02/20 07:36:48;;;;;;;38.10;31.10;;;281.80;2278.40;;;;;;4839845;29;20065;-73
2024/02/20 07:39:14;;;;;;;25.58;21.55;;;282.00;2278.40;;;;;;4839951;29;20100;-69
2024/02/20 07:41:41;;;;;;;28.92;24.77;;;282.00;2278.40;;;;;;4839788;29;20030;-69
2024/02/20 07:44:06;;;;;;;24.58;18.60;;;282.10;2278.40;;;;;;4839657;29;20026;-68
2024/02/20 07:46:33;;;;;;;21.17;18.42;;;282.00;2278.40;;;;;;4839279;29;20036;-69
2024/02/20 07:48:59;;;;;;;19.25;15.45;;;282.00;2278.40;;;;;;4850166;29;20425;-69
2024/02/20 07:51:25;;;;;;;65.40;55.20;;;282.00;2278.40;;;;;;4841282;29;20109;-69
2024/02/20 07:53:51;;;;;;;37.08;29.38;;;282.20;2278.40;;;;;;4795189;29;1320855;-69
2024/02/20 07:56:29;;;;;;;26.65;20.10;;;282.20;2278.40;;;;;;4840779;29;20117;-68
2024/02/20 07:58:54;;;;;;;14.90;12.25;;;282.20;2278.40;;;;;;4840596;29;20038;-71
2024/02/20 08:01:20;;;;;;;15.32;12.15;;;282.40;2278.40;;;;;;4840600;29;20029;-69
2024/02/20 08:03:52;;;;;;;10.63;8.38;;;282.40;2278.40;;;;;;4840284;29;20553;-69
2024/02/20 08:06:19;;;;;;;18.35;13.43;;;282.40;2278.40;;;;;;4840659;29;20041;-69
2024/02/20 08:08:45;;;;;;;10.85;9.65;;;282.50;2278.40;;;;;;4839948;29;20033;-70
2024/02/20 08:11:12;;;;;;;26.65;22.27;;;282.50;2278.40;;;;;;4840595;29;20030;-72
2024/02/20 08:13:42;;;;;;;11.88;8.88;;;307.40;2304.00;;;;;;4840265;29;20033;-72
2024/02/20 08:16:10;;;;;;;12.07;9.35;;;307.40;2304.00;;;;;;4840266;29;20040;-69
2024/02/20 08:18:36;;;;;;;14.98;12.63;;;307.30;2304.00;;;;;;4839852;29;20102;-70
2024/02/20 08:21:02;;;;;;;11.73;8.95;;;307.60;2304.00;;;;;;4840385;29;20030;-69
2024/02/20 08:23:28;;;;;;;11.43;8.52;;;307.60;2304.00;;;;;;4840169;29;20045;-70
2024/02/20 08:25:53;;;;;;;12.07;8.20;;;307.50;2304.00;;;;;;4840211;29;20038;-69
2024/02/20 08:28:19;;;;;;;13.20;9.85;;;307.50;2304.00;;;;;;4840234;29;20042;-71
2024/02/20 08:30:45;;;;;;;10.57;8.18;;;307.60;2304.00;;;;;;4839912;29;20074;-70
2024/02/20 08:33:11;;;;;;;12.27;8.60;;;307.80;2304.00;;;;;;4840154;29;20159;-75
2024/02/20 08:35:37;;;;;;;12.88;9.07;;;307.60;2304.00;;;;;;4840108;29;20026;-70
2024/02/20 08:38:03;;;;;;;18.42;14.27;;;307.70;2304.00;;;;;;4839743;29;20076;-72
2024/02/20 08:40:29;;;;;;;13.70;8.68;;;307.90;2304.00;;;;;;4840337;29;20057;-70
2024/02/20 08:42:55;;;;;;;10.02;7.07;;;307.90;2304.00;;;;;;4839875;29;20109;-71
2024/02/20 08:45:20;;;;;;;13.57;9.45;;;332.80;2329.60;;;;;;4839768;29;20389;-69
2024/02/20 08:47:47;;;;;;;16.13;13.48;;;332.90;2329.60;;;;;;4839585;29;20549;-71
2024/02/20 08:50:16;;;;;;;51.15;31.30;;;332.90;2329.60;;;;;;4839636;29;20033;-70
2024/02/20 08:52:43;;;;;;;63.55;33.90;;;333.10;2329.60;;;;;;4839322;29;20041;-70
2024/02/20 08:55:08;;;;;;;13.38;11.20;;;333.30;2329.60;;;;;;4839768;29;20050;-70
2024/02/20 08:57:34;;;;;;;133.35;66.25;;;333.30;2329.60;;;;;;4839391;29;20050;-69
2024/02/20 09:00:00;;;;;;;576.83;326.10;;;333.40;2329.60;;;;;;4839375;29;20053;-75
2024/02/20 09:02:26;;;;;;;442.08;260.50;;;333.40;2329.60;;;;;;4839537;29;20084;-73
2024/02/20 09:04:52;;;;;;;367.92;225.38;;;333.30;2329.60;;;;;;4838933;29;20389;-73
2024/02/20 09:07:18;;;;;;;19.30;12.63;;;333.40;2329.60;;;;;;4839073;29;20089;-73
2024/02/20 09:09:44;;;;;;;12.57;9.50;;;333.50;2329.60;;;;;;4839384;29;20030;-74
2024/02/20 09:12:09;;;;;;;166.98;109.55;;;358.50;2329.60;;;;;;4839600;29;20440;-71
2024/02/20 09:14:35;;;;;;;40.38;28.42;;;358.60;2329.60;;;;;;4846487;29;20040;-70
2024/02/20 09:17:01;;;;;;;12.00;8.10;;;359.00;2329.60;;;;;;4843773;29;20527;-74
2024/02/20 09:19:27;;;;;;;66.57;45.08;;;384.00;2329.60;;;;;;4839415;29;20508;-70
2024/02/20 09:21:52;;;;;;;10.85;8.18;;;384.00;2329.60;;;;;;4839037;29;20438;-71
2024/02/20 09:24:19;;;;;;;11.18;8.30;;;384.20;2329.60;;;;;;4839326;29;20053;-70
2024/02/20 09:26:45;;;;;;;11.07;9.27;;;384.10;2329.60;;;;;;4838961;29;20030;-71
2024/02/20 09:29:10;;;;;;;17.38;13.05;;;359.20;2329.60;;;;;;4838999;29;20117;-71
2024/02/20 09:31:36;;;;;;;11.13;8.07;;;359.10;2329.60;;;;;;4838715;29;20109;-69
2024/02/20 09:34:02;;;;;;;35.63;23.92;;;359.10;2329.60;;;;;;4838748;29;20030;-71
2024/02/20 09:36:28;;;;;;;57.85;38.15;;;359.10;2329.60;;;;;;4839069;29;20129;-69
2024/02/20 09:38:53;;;;;;;100.28;62.08;;;359.30;2329.60;;;;;;4838885;29;20042;-69
2024/02/20 09:41:25;;;;;;;16.15;9.30;;;358.90;2329.60;;;;;;4839082;29;20061;-72
2024/02/20 09:43:52;;;;;;;25.58;16.70;;;358.80;2329.60;;;;;;4838931;29;20030;-75
2024/02/20 09:46:23;;;;;;;50.97;31.10;;;358.70;2329.60;;;;;;4838532;29;20030;-76
2024/02/20 09:48:49;;;;;;;15.57;8.65;;;358.60;2329.60;;;;;;4839035;29;20042;-72
2024/02/20 09:51:19;;;;;;;9.40;7.32;;;358.50;2329.60;;;;;;4838662;29;20129;-70
2024/02/20 09:53:45;;;;;;;13.82;10.10;;;358.50;2329.60;;;;;;4838399;29;20081;-75
2024/02/20 09:56:14;;;;;;;24.92;14.98;;;358.50;2329.60;;;;;;4838878;29;20452;-70
2024/02/20 09:58:39;;;;;;;12.18;9.27;;;358.50;2329.60;;;;;;4838561;29;20049;-69
2024/02/20 10:01:06;;;;;;;91.03;47.42;;;358.40;2329.60;;;;;;4838364;29;20026;-70
2024/02/20 10:03:35;;;;;;;19.92;14.32;;;333.70;2329.60;;;;;;4838392;29;20508;-70
2024/02/20 10:06:03;;;;;;;64.75;36.88;;;333.70;2329.60;;;;;;4838640;29;20469;-70
2024/02/20 10:08:28;;;;;;;99.20;65.82;;;333.70;2329.60;;;;;;4838559;29;20068;-73
2024/02/20 10:10:54;;;;;;;22.50;14.95;;;358.50;2329.60;;;;;;4838294;29;20061;-75
2024/02/20 10:13:20;;;;;;;10.30;8.02;;;358.50;2329.60;;;;;;4838633;29;20057;-69
2024/02/20 10:15:47;;;;;;;73.80;52.17;;;358.40;2329.60;;;;;;4837980;29;20113;-70
2024/02/20 10:18:17;;;;;;;45.92;31.48;;;358.50;2329.60;;;;;;4837971;29;20045;-74
2024/02/20 10:20:43;;;;;;;33.85;25.17;;;333.70;2329.60;;;;;;4838522;29;20034;-70
2024/02/20 10:23:10;;;;;;;32.95;22.15;;;333.60;2329.60;;;;;;4838438;29;20451;-79
2024/02/20 10:25:37;;;;;;;20.42;11.23;;;333.70;2329.60;;;;;;4838240;29;20098;-70
2024/02/20 10:28:06;;;;;;;29.42;19.80;;;333.70;2329.60;;;;;;4838310;29;20378;-73
2024/02/20 10:30:32;;;;;;;56.33;39.30;;;333.70;2329.60;;;;;;4837899;29;20033;-72
2024/02/20 10:32:59;;;;;;;39.25;25.35;;;358.50;2329.60;;;;;;4838421;29;20550;-69
2024/02/20 10:35:25;;;;;;;61.90;42.40;;;358.70;2329.60;;;;;;4838092;29;20025;-69
2024/02/20 10:38:04;;;;;;;12.43;9.95;;;358.70;2329.60;;;;;;4838165;29;20121;-70
2024/02/20 10:40:31;;;;;;;13.88;9.80;;;358.60;2329.60;;;;;;4838734;29;20064;-73
2024/02/20 10:42:57;;;;;;;14.27;11.32;;;358.50;2329.60;;;;;;4838334;29;20030;-71
2024/02/20 10:45:24;;;;;;;18.98;13.00;;;333.60;2329.60;;;;;;4838114;29;20162;-71
2024/02/20 10:47:52;;;;;;;7.50;5.82;;;333.60;2329.60;;;;;;4838072;29;20058;-76
2024/02/20 10:50:18;;;;;;;15.52;10.90;;;333.70;2329.60;;;;;;4838486;29;20105;-71
2024/02/20 10:52:44;;;;;;;8.65;6.75;;;358.50;2329.60;;;;;;4837655;29;20036;-71
2024/02/20 10:55:11;;;;;;;7.45;5.45;;;358.70;2329.60;;;;;;4837904;29;20140;-70
2024/02/20 10:57:38;;;;;;;18.88;14.50;;;358.70;2329.60;;;;;;4838184;29;20185;-70
2024/02/20 11:00:09;;;;;;;10.77;7.85;;;358.70;2329.60;;;;;;4837918;29;20022;-74
2024/02/20 11:02:42;;;;;;;20.73;15.45;;;358.90;2329.60;;;;;;4837889;29;20030;-70
2024/02/20 11:05:10;;;;;;;15.63;11.07;;;359.20;2329.60;;;;;;4838244;29;20030;-74
2024/02/20 11:07:36;;;;;;;17.23;12.60;;;384.20;2329.60;;;;;;4837688;29;20040;-73
2024/02/20 11:10:16;;;;;;;9.00;6.53;;;384.60;2329.60;;;;;;4838076;29;20064;-71
2024/02/20 11:12:42;;;;;;;14.90;9.70;;;384.60;2329.60;;;;;;4837697;29;20034;-69
2024/02/20 11:15:19;;;;;;;16.95;13.30;;;384.80;2329.60;;;;;;4838021;29;20026;-77
2024/02/20 11:17:50;;;;;;;16.63;12.95;;;384.70;2329.60;;;;;;4837753;29;20034;-76
2024/02/20 11:20:17;;;;;;;42.13;32.67;;;384.60;2329.60;;;;;;4837669;29;20022;-73
2024/02/20 11:22:49;;;;;;;14.70;10.38;;;384.70;2329.60;;;;;;4837605;29;20034;-76
2024/02/20 11:25:21;;;;;;;21.27;17.90;;;384.30;2329.60;;;;;;4837557;29;20034;-75
2024/02/20 11:27:47;;;;;;;14.27;10.43;;;384.50;2329.60;;;;;;4821723;29;20389;-80
2024/02/20 11:30:20;;;;;;;14.23;10.45;;;384.30;2329.60;;;;;;4840273;29;20266;-75
2024/02/20 11:32:48;;;;;;;14.48;9.98;;;359.30;2329.60;;;;;;4841118;29;20032;-77
2024/02/20 11:35:31;;;;;;;18.52;14.57;;;358.90;2329.60;;;;;;4841305;29;20105;-80
2024/02/20 11:37:58;;;;;;;28.65;22.50;;;358.80;2329.60;;;;;;4841271;29;20038;-70
2024/02/20 11:40:28;;;;;;;16.15;12.20;;;358.50;2329.60;;;;;;4841277;29;20014;-78
2024/02/20 11:42:57;;;;;;;23.73;17.58;;;333.70;2329.60;;;;;;4841138;29;20030;-81
2024/02/20 11:45:29;;;;;;;52.50;38.50;;;333.70;2329.60;;;;;;4824197;29;20064;-72
2024/02/20 11:48:01;;;;;;;44.42;32.60;;;358.40;2329.60;;;;;;4840717;29;20046;-74
2024/02/20 11:50:28;;;;;;;23.83;19.70;;;333.30;2329.60;;;;;;4841054;29;20090;-79
2024/02/20 11:53:05;;;;;;;35.67;26.90;;;333.20;2329.60;;;;;;4840637;29;20623;-74
2024/02/20 11:55:32;;;;;;;27.88;20.88;;;333.00;2329.60;;;;;;4841050;29;20113;-81